Time;durP1;ratioP1;P1;durP2;ratioP2;P2;SDS_P1;SDS_P2;PMS_P1;PMS_P2;Temp;Humidity;BMP_temperature;BMP_pressure;BME280_temperature;BME280_humidity;BME280_pressure;Samples;Min_cycle;Max_cycle;Signal;HPM_P1;HPM_P2
2023/05/10 00:02:24;;;;;;;;;;;19.20;67.30;;;;;;5073952;28;19924;-67
2023/05/10 00:04:49;;;;;;;;;;;19.20;68.00;;;;;;5091991;28;19920;-67
2023/05/10 00:07:17;;;;;;;;;;;19.20;67.30;;;;;;5073945;28;20015;-67
2023/05/10 00:09:42;;;;;;;;;;;19.20;67.30;;;;;;5092096;28;19927;-67
2023/05/10 00:12:08;;;;;;;;;;;19.20;67.30;;;;;;5092075;28;19923;-67
2023/05/10 00:14:34;;;;;;;;;;;19.20;67.30;;;;;;5091948;28;20264;-67
2023/05/10 00:16:59;;;;;;;;;;;19.20;67.30;;;;;;5091860;28;19927;-67
2023/05/10 00:19:25;;;;;;;;;;;19.20;67.20;;;;;;5073764;28;19965;-67
2023/05/10 00:21:50;;;;;;;;;;;19.20;67.20;;;;;;5073523;28;20040;-67
2023/05/10 00:24:16;;;;;;;;;;;19.20;67.20;;;;;;5091969;28;19924;-66
2023/05/10 00:26:42;;;;;;;;;;;19.10;67.20;;;;;;5091861;28;20395;-66
2023/05/10 00:29:07;;;;;;;;;;;19.10;67.10;;;;;;5075706;28;20420;-67
2023/05/10 00:31:33;;;;;;;;;;;19.10;67.20;;;;;;5077724;28;19920;-67
2023/05/10 00:33:58;;;;;;;;;;;19.10;67.10;;;;;;5095397;28;19972;-67
2023/05/10 00:36:24;;;;;;;;;;;19.10;67.10;;;;;;5077188;28;19973;-66
2023/05/10 00:38:49;;;;;;;;;;;19.10;67.10;;;;;;5077129;28;20291;-66
2023/05/10 00:41:15;;;;;;;;;;;19.10;67.10;;;;;;5095210;28;19985;-66
2023/05/10 00:43:41;;;;;;;;;;;19.10;67.10;;;;;;5077426;28;19920;-67
2023/05/10 00:46:07;;;;;;;;;;;19.10;67.10;;;;;;5095181;28;19981;-67
2023/05/10 00:48:33;;;;;;;;;;;19.10;67.10;;;;;;5077345;28;20584;-67
2023/05/10 00:50:58;;;;;;;;;;;19.10;67.10;;;;;;5095327;28;19924;-66
2023/05/10 00:53:24;;;;;;;;;;;19.10;67.10;;;;;;5077233;28;20007;-67
2023/05/10 00:55:50;;;;;;;;;;;19.10;67.10;;;;;;5095108;28;19927;-66
2023/05/10 00:58:16;;;;;;;;;;;19.10;67.20;;;;;;5095029;28;20041;-66
2023/05/10 01:00:43;;;;;;;;;;;19.10;67.00;;;;;;5076710;28;19920;-67
2023/05/10 01:03:09;;;;;;;;;;;19.10;67.00;;;;;;5076960;28;19963;-67
2023/05/10 01:05:34;;;;;;;;;;;19.10;67.10;;;;;;5076822;28;19927;-67
2023/05/10 01:08:00;;;;;;;;;;;19.00;67.00;;;;;;5076923;28;19920;-67
2023/05/10 01:10:25;;;;;;;;;;;19.10;67.10;;;;;;5076637;28;19944;-67
2023/05/10 01:12:51;;;;;;;;;;;19.00;67.00;;;;;;5094647;28;19934;-67
2023/05/10 01:15:17;;;;;;;;;;;19.00;66.90;;;;;;5076806;28;20027;-67
2023/05/10 01:17:44;;;;;;;;;;;19.00;67.00;;;;;;5076711;28;20364;-67
2023/05/10 01:20:10;;;;;;;;;;;19.00;67.00;;;;;;5076011;28;20264;-67
2023/05/10 01:22:56;;;;;;;;;;;19.00;66.90;;;;;;5076281;28;20061;-67
2023/05/10 01:25:42;;;;;;;;;;;19.00;66.90;;;;;;5076082;28;20011;-67
2023/05/10 01:28:20;;;;;;;;;;;19.00;66.90;;;;;;5076453;28;19946;-67
2023/05/10 01:33:35;;;;;;;;;;;19.00;66.90;;;;;;5110233;27;19912;-67
2023/05/10 01:38:47;;;;;;;;;;;19.00;66.90;;;;;;5089755;28;20368;-67
2023/05/10 01:41:16;;;;;;;;;;;18.90;66.80;;;;;;5089923;28;19927;-67
2023/05/10 01:43:59;;;;;;;;;;;19.00;67.00;;;;;;5088756;28;20261;-67
2023/05/10 01:46:28;;;;;;;;;;;19.00;66.90;;;;;;5088835;28;20394;-67
2023/05/10 01:48:55;;;;;;;;;;;19.00;66.90;;;;;;5088685;28;19924;-67
2023/05/10 01:51:24;;;;;;;;;;;19.00;66.90;;;;;;5088337;28;20399;-67
2023/05/10 01:53:51;;;;;;;;;;;19.00;66.90;;;;;;5089577;28;20391;-67
2023/05/10 01:56:19;;;;;;;;;;;18.90;66.90;;;;;;5088239;28;19920;-67
2023/05/10 01:58:46;;;;;;;;;;;19.00;66.90;;;;;;5089534;28;19920;-67
2023/05/10 02:01:13;;;;;;;;;;;19.00;66.90;;;;;;5089616;28;20319;-67
2023/05/10 02:03:39;;;;;;;;;;;18.90;66.80;;;;;;5088149;28;19927;-67
2023/05/10 02:06:05;;;;;;;;;;;19.00;66.90;;;;;;5088090;28;19920;-67
2023/05/10 02:08:32;;;;;;;;;;;19.00;66.90;;;;;;5089738;28;19972;-67
2023/05/10 02:10:58;;;;;;;;;;;18.90;66.80;;;;;;5088390;28;19935;-67
2023/05/10 02:13:25;;;;;;;;;;;19.00;66.90;;;;;;5089355;28;19928;-67
2023/05/10 02:15:52;;;;;;;;;;;19.00;66.90;;;;;;5089301;28;20015;-67
2023/05/10 02:18:18;;;;;;;;;;;18.90;66.80;;;;;;5089078;28;19993;-67
2023/05/10 02:20:45;;;;;;;;;;;18.90;66.80;;;;;;5087848;28;19967;-67
2023/05/10 02:23:10;;;;;;;;;;;18.90;66.80;;;;;;5088088;28;20391;-67
2023/05/10 02:25:37;;;;;;;;;;;18.90;66.80;;;;;;5104805;28;20010;-67
2023/05/10 02:28:03;;;;;;;;;;;18.90;66.80;;;;;;5087703;28;19924;-67
2023/05/10 02:30:30;;;;;;;;;;;18.90;66.80;;;;;;5089314;28;20275;-67
2023/05/10 02:32:56;;;;;;;;;;;18.90;66.80;;;;;;5088937;28;19963;-67
2023/05/10 02:35:22;;;;;;;;;;;18.90;66.80;;;;;;5087553;28;19970;-68
2023/05/10 02:37:52;;;;;;;;;;;18.90;66.80;;;;;;5087311;28;19974;-67
2023/05/10 02:40:18;;;;;;;;;;;19.00;66.80;;;;;;5087369;28;19963;-67
2023/05/10 02:42:44;;;;;;;;;;;19.20;66.50;;;;;;5087479;28;19931;-67
2023/05/10 02:45:12;;;;;;;;;;;19.50;66.10;;;;;;5087450;28;19920;-67
2023/05/10 02:47:37;;;;;;;;;;;19.70;65.50;;;;;;5088743;28;20334;-67
2023/05/10 02:50:03;;;;;;;;;;;20.10;64.80;;;;;;5073555;28;19924;-67
2023/05/10 02:52:31;;;;;;;;;;;20.50;64.50;;;;;;5074957;28;19920;-67
2023/05/10 02:54:59;;;;;;;;;;;21.00;62.50;;;;;;5074051;28;20014;-67
2023/05/10 02:57:27;;;;;;;;;;;21.50;61.20;;;;;;5074908;28;19924;-67
2023/05/10 02:59:52;;;;;;;;;;;22.00;60.00;;;;;;5074997;28;19920;-67
2023/05/10 03:02:18;;;;;;;;;;;22.40;59.00;;;;;;5074947;28;20236;-67
2023/05/10 03:04:44;;;;;;;;;;;22.80;58.00;;;;;;5073789;28;19927;-67
2023/05/10 03:07:09;;;;;;;;;;;23.10;57.10;;;;;;5073975;28;19921;-68
2023/05/10 03:09:35;;;;;;;;;;;23.30;56.40;;;;;;5073829;28;20372;-68
2023/05/10 03:12:03;;;;;;;;;;;23.50;56.00;;;;;;5073754;28;20217;-68
2023/05/10 03:17:22;;;;;;;;;;;23.50;55.50;;;;;;5089866;28;19913;-68
2023/05/10 03:19:52;;;;;;;;;;;23.50;55.50;;;;;;5088492;28;20003;-68
2023/05/10 03:22:23;;;;;;;;;;;23.40;55.70;;;;;;5089763;28;20346;-68
2023/05/10 03:24:49;;;;;;;;;;;23.20;55.80;;;;;;5088782;28;19920;-67
2023/05/10 03:27:14;;;;;;;;;;;23.00;56.10;;;;;;5088357;28;20012;-67
2023/05/10 03:29:41;;;;;;;;;;;22.90;56.40;;;;;;5088694;28;20031;-67
2023/05/10 03:32:06;;;;;;;;;;;22.70;56.70;;;;;;5088607;28;19920;-68
2023/05/10 03:34:32;;;;;;;;;;;22.50;57.00;;;;;;5088253;28;19920;-68
2023/05/10 03:36:58;;;;;;;;;;;22.40;57.30;;;;;;5089654;28;19924;-67
2023/05/10 03:39:24;;;;;;;;;;;22.20;57.60;;;;;;5088768;28;19920;-68
2023/05/10 03:41:50;;;;;;;;;;;22.00;58.00;;;;;;5088329;28;20015;-68
2023/05/10 03:44:16;;;;;;;;;;;21.90;58.30;;;;;;5088164;28;20007;-68
2023/05/10 03:46:41;;;;;;;;;;;21.70;58.60;;;;;;5089439;28;20268;-68
2023/05/10 03:49:07;;;;;;;;;;;21.60;58.90;;;;;;5089297;28;19946;-68
2023/05/10 03:51:32;;;;;;;;;;;21.50;59.20;;;;;;5088275;28;19921;-68
2023/05/10 03:53:58;;;;;;;;;;;21.30;59.40;;;;;;5088264;28;20066;-68
2023/05/10 03:56:23;;;;;;;;;;;21.20;59.60;;;;;;5087879;28;19932;-68
2023/05/10 03:58:49;;;;;;;;;;;21.20;59.90;;;;;;5088246;28;19924;-68
2023/05/10 04:01:14;;;;;;;;;;;21.10;60.10;;;;;;5088148;28;19920;-68
2023/05/10 04:03:40;;;;;;;;;;;21.00;60.30;;;;;;5088986;28;20010;-68
2023/05/10 04:06:05;;;;;;;;;;;20.90;60.40;;;;;;5089291;28;19927;-68
2023/05/10 04:08:31;;;;;;;;;;;20.90;60.50;;;;;;5087694;28;19920;-68
2023/05/10 04:11:12;;;;;;;;;;;20.90;60.50;;;;;;5087693;28;19947;-68
2023/05/10 04:13:38;;;;;;;;;;;21.00;60.40;;;;;;5087852;28;19920;-68
2023/05/10 04:16:04;;;;;;;;;;;21.00;60.30;;;;;;5087173;28;19974;-67
2023/05/10 04:18:30;;;;;;;;;;;21.10;60.20;;;;;;5088660;28;19921;-68
2023/05/10 04:20:55;;;;;;;;;;;21.10;59.90;;;;;;5087747;28;19966;-68
2023/05/10 04:23:21;;;;;;;;;;;21.20;59.80;;;;;;5088806;28;19924;-67
2023/05/10 04:25:46;;;;;;;;;;;21.30;59.60;;;;;;5087720;28;20015;-68
2023/05/10 04:28:12;;;;;;;;;;;21.30;59.40;;;;;;5058744;28;19920;-68
2023/05/10 04:30:38;;;;;;;;;;;21.30;59.20;;;;;;5074248;28;19943;-68
2023/05/10 04:33:04;;;;;;;;;;;21.30;59.10;;;;;;5074824;28;19920;-68
2023/05/10 04:35:29;;;;;;;;;;;21.40;59.10;;;;;;5074961;28;20023;-68
2023/05/10 04:37:55;;;;;;;;;;;21.40;59.00;;;;;;5073924;28;19921;-68
2023/05/10 04:40:20;;;;;;;;;;;21.40;58.80;;;;;;5073951;28;19931;-68
2023/05/10 04:42:46;;;;;;;;;;;21.50;58.80;;;;;;5073791;28;20391;-68
2023/05/10 04:45:12;;;;;;;;;;;21.50;58.70;;;;;;5073489;28;19928;-68
2023/05/10 04:47:37;;;;;;;;;;;21.50;58.60;;;;;;5073827;28;19920;-68
2023/05/10 04:50:03;;;;;;;;;;;21.50;58.50;;;;;;5074578;28;19924;-68
2023/05/10 04:52:29;;;;;;;;;;;21.50;58.40;;;;;;5074840;28;20353;-68
2023/05/10 04:54:54;;;;;;;;;;;21.50;58.40;;;;;;5073273;28;19924;-68
2023/05/10 04:57:20;;;;;;;;;;;21.50;58.40;;;;;;5073645;28;19975;-68
2023/05/10 04:59:45;;;;;;;;;;;21.50;58.40;;;;;;5074604;28;20376;-68
2023/05/10 05:02:11;;;;;;;;;;;21.50;58.30;;;;;;5073530;28;19921;-68
2023/05/10 05:04:36;;;;;;;;;;;21.50;58.40;;;;;;5073096;28;20292;-68
2023/05/10 05:07:02;;;;;;;;;;;21.50;58.30;;;;;;5073663;28;19963;-68
2023/05/10 05:09:27;;;;;;;;;;;21.50;58.40;;;;;;5073046;28;20371;-68
2023/05/10 05:11:53;;;;;;;;;;;21.50;58.30;;;;;;5074451;28;19927;-68
2023/05/10 05:14:20;;;;;;;;;;;21.40;58.30;;;;;;5073255;28;19920;-68
2023/05/10 05:16:46;;;;;;;;;;;21.50;58.30;;;;;;5091433;28;19924;-68
2023/05/10 05:19:11;;;;;;;;;;;21.40;58.30;;;;;;5093265;28;19920;-69
2023/05/10 05:21:37;;;;;;;;;;;21.40;58.30;;;;;;5094345;28;20458;-68
2023/05/10 05:24:03;;;;;;;;;;;21.40;58.30;;;;;;5076134;28;20395;-68
2023/05/10 05:26:28;;;;;;;;;;;21.40;58.30;;;;;;5094142;28;19964;-68
2023/05/10 05:28:54;;;;;;;;;;;21.40;58.30;;;;;;5076301;28;19924;-68
2023/05/10 05:31:20;;;;;;;;;;;21.40;58.30;;;;;;5075300;28;19991;-69
2023/05/10 05:33:45;;;;;;;;;;;21.40;58.30;;;;;;5075797;28;19927;-70
2023/05/10 05:36:11;;;;;;;;;;;21.40;58.30;;;;;;5072114;28;19947;-71
2023/05/10 05:38:36;;;;;;;;;;;21.40;58.30;;;;;;5089834;28;20255;-72
2023/05/10 05:41:02;;;;;;;;;;;21.40;58.40;;;;;;5070626;28;20410;-71
2023/05/10 05:43:28;;;;;;;;;;;21.40;58.50;;;;;;5071594;28;19927;-71
2023/05/10 05:45:54;;;;;;;;;;;21.30;58.50;;;;;;5065186;28;19928;-72
2023/05/10 05:48:19;;;;;;;;;;;21.40;58.40;;;;;;5067663;28;19920;-70
2023/05/10 05:50:45;;;;;;;;;;;21.40;58.40;;;;;;5066592;28;20371;-72
2023/05/10 05:53:11;;;;;;;;;;;21.30;58.50;;;;;;5067663;28;19924;-66
2023/05/10 05:55:36;;;;;;;;;;;21.20;58.50;;;;;;5068148;28;19924;-66
2023/05/10 05:58:02;;;;;;;;;;;21.20;58.70;;;;;;5067407;28;19935;-66
2023/05/10 06:00:28;;;;;;;;;;;21.20;58.80;;;;;;5064777;28;19920;-67
2023/05/10 06:02:53;;;;;;;;;;;21.20;58.70;;;;;;5060693;28;20107;-66
2023/05/10 06:05:20;;;;;;;;;;;21.30;58.70;;;;;;5033169;28;19928;-70
2023/05/10 06:07:45;;;;;;;;;;;21.30;58.70;;;;;;5064263;28;19948;-67
2023/05/10 06:10:11;;;;;;;;;;;21.30;58.60;;;;;;5045569;28;20573;-68
2023/05/10 06:12:37;;;;;;;;;;;21.40;58.60;;;;;;5047601;28;20652;-67
2023/05/10 06:15:02;;;;;;;;;;;21.50;58.60;;;;;;5052183;28;19928;-68
2023/05/10 06:17:28;;;;;;;;;;;21.50;58.60;;;;;;5054119;28;20407;-67
2023/05/10 06:19:54;;;;;;;;;;;21.40;58.50;;;;;;5067543;28;19928;-67
2023/05/10 06:22:19;;;;;;;;;;;21.40;58.50;;;;;;5052981;28;19993;-66
2023/05/10 06:24:45;;;;;;;;;;;21.50;58.60;;;;;;5066267;28;19993;-66
2023/05/10 06:27:10;;;;;;;;;;;21.50;58.60;;;;;;5051638;28;20528;-67
2023/05/10 06:29:35;;;;;;;;;;;21.50;58.60;;;;;;5048993;28;19920;-67
2023/05/10 06:32:01;;;;;;;;;;;21.50;58.60;;;;;;5046987;28;19921;-64
2023/05/10 06:34:26;;;;;;;;;;;21.50;58.70;;;;;;5050978;28;19928;-67
2023/05/10 06:36:52;;;;;;;;;;;21.50;58.80;;;;;;5050731;28;19928;-67
2023/05/10 06:39:18;;;;;;;;;;;21.50;58.80;;;;;;5052413;28;19931;-67
2023/05/10 06:41:43;;;;;;;;;;;21.50;58.80;;;;;;5053893;28;19924;-67
2023/05/10 06:44:09;;;;;;;;;;;21.50;58.90;;;;;;5051507;28;20406;-63
2023/05/10 06:46:35;;;;;;;;;;;21.50;59.00;;;;;;5053927;28;20010;-67
2023/05/10 06:49:00;;;;;;;;;;;21.50;59.00;;;;;;5049774;28;19928;-68
2023/05/10 06:51:25;;;;;;;;;;;21.50;59.10;;;;;;5052061;28;19931;-68
2023/05/10 06:53:51;;;;;;;;;;;21.50;59.20;;;;;;5068516;28;19920;-67
2023/05/10 06:56:16;;;;;;;;;;;21.50;59.30;;;;;;5048670;28;19929;-67
2023/05/10 06:58:42;;;;;;;;;;;21.50;59.30;;;;;;5049104;28;20130;-68
2023/05/10 07:01:07;;;;;;;;;;;21.50;59.40;;;;;;5048823;28;20525;-67
2023/05/10 07:03:33;;;;;;;;;;;21.50;59.30;;;;;;5068975;28;19934;-69
2023/05/10 07:06:01;;;;;;;;;;;21.50;59.40;;;;;;5049585;28;20471;-68
2023/05/10 07:08:26;;;;;;;;;;;21.50;59.40;;;;;;5071588;28;20859;-68
2023/05/10 07:10:52;;;;;;;;;;;21.50;59.50;;;;;;5067651;28;19924;-68
2023/05/10 07:13:17;;;;;;;;;;;21.40;59.50;;;;;;5049440;28;19934;-68
2023/05/10 07:15:43;;;;;;;;;;;21.40;59.60;;;;;;5051589;28;19950;-69
2023/05/10 07:18:08;;;;;;;;;;;21.40;59.60;;;;;;5049536;28;20033;-68
2023/05/10 07:20:34;;;;;;;;;;;21.40;59.70;;;;;;5049571;28;19924;-68
2023/05/10 07:22:59;;;;;;;;;;;21.50;59.70;;;;;;5052390;28;19920;-71
2023/05/10 07:25:25;;;;;;;;;;;21.40;59.70;;;;;;5053459;28;19931;-70
2023/05/10 07:27:51;;;;;;;;;;;21.40;59.70;;;;;;5051669;28;19924;-69
2023/05/10 07:30:17;;;;;;;;;;;21.40;59.90;;;;;;5069452;28;19924;-68
2023/05/10 07:32:42;;;;;;;;;;;21.40;59.90;;;;;;5071883;28;19931;-68
2023/05/10 07:35:08;;;;;;;;;;;21.40;59.90;;;;;;5049407;28;19932;-71
2023/05/10 07:37:33;;;;;;;;;;;21.40;59.90;;;;;;5045117;28;19928;-70
2023/05/10 07:39:59;;;;;;;;;;;21.40;59.90;;;;;;5046509;28;19931;-69
2023/05/10 07:42:24;;;;;;;;;;;21.40;59.80;;;;;;5045070;28;19924;-70
2023/05/10 07:44:50;;;;;;;;;;;21.40;59.70;;;;;;5065137;28;19928;-67
2023/05/10 07:47:16;;;;;;;;;;;21.40;59.80;;;;;;5055894;28;20386;-68
2023/05/10 07:49:42;;;;;;;;;;;21.40;59.80;;;;;;5058174;28;20007;-68
2023/05/10 07:52:07;;;;;;;;;;;21.40;59.90;;;;;;5050708;28;19931;-69
2023/05/10 07:54:33;;;;;;;;;;;21.40;59.80;;;;;;5051308;28;19995;-70
2023/05/10 07:56:59;;;;;;;;;;;21.40;59.80;;;;;;5068132;28;19928;-68
2023/05/10 07:59:25;;;;;;;;;;;21.40;59.90;;;;;;5052338;28;19977;-70
2023/05/10 08:01:50;;;;;;;;;;;21.40;59.90;;;;;;5067187;28;20030;-69
2023/05/10 08:04:16;;;;;;;;;;;21.40;59.90;;;;;;5055649;28;19927;-70
2023/05/10 08:06:42;;;;;;;;;;;21.40;60.00;;;;;;5055706;28;19931;-72
2023/05/10 08:09:07;;;;;;;;;;;21.40;60.00;;;;;;5060555;28;19924;-69
2023/05/10 08:11:33;;;;;;;;;;;21.40;60.00;;;;;;5053944;28;20015;-69
2023/05/10 08:13:58;;;;;;;;;;;21.40;60.10;;;;;;5055284;28;19931;-70
2023/05/10 08:16:24;;;;;;;;;;;21.40;60.10;;;;;;5076775;28;19928;-70
2023/05/10 08:18:50;;;;;;;;;;;21.40;60.20;;;;;;5074448;28;20565;-73
2023/05/10 08:21:16;;;;;;;;;;;21.40;60.20;;;;;;5075229;28;19952;-68
2023/05/10 08:23:43;;;;;;;;;;;21.40;60.30;;;;;;5056237;28;19966;-66
2023/05/10 08:26:09;;;;;;;;;;;21.40;60.40;;;;;;5054837;28;19920;-68
2023/05/10 08:28:34;;;;;;;;;;;21.50;60.40;;;;;;5064499;28;19977;-69
2023/05/10 08:31:00;;;;;;;;;;;21.50;60.30;;;;;;5072041;28;20138;-67
2023/05/10 08:33:25;;;;;;;;;;;21.50;60.20;;;;;;5075572;28;19924;-63
2023/05/10 08:35:51;;;;;;;;;;;21.50;60.20;;;;;;5070902;28;19932;-68
2023/05/10 08:38:17;;;;;;;;;;;21.50;60.30;;;;;;5053397;28;19958;-66
2023/05/10 08:40:43;;;;;;;;;;;21.40;60.40;;;;;;5045118;28;19924;-69
2023/05/10 08:43:10;;;;;;;;;;;21.40;60.50;;;;;;5056827;28;20107;-71
2023/05/10 08:45:38;;;;;;;;;;;21.50;60.70;;;;;;5073553;28;20041;-71
2023/05/10 08:48:05;;;;;;;;;;;21.40;60.70;;;;;;5055655;28;19925;-70
2023/05/10 08:50:31;;;;;;;;;;;21.40;60.80;;;;;;5056380;28;20130;-71
2023/05/10 08:52:58;;;;;;;;;;;21.40;60.80;;;;;;5054062;28;19931;-67
2023/05/10 08:55:24;;;;;;;;;;;21.40;60.80;;;;;;5071382;28;19935;-68
2023/05/10 08:57:49;;;;;;;;;;;21.40;60.90;;;;;;5058663;28;19924;-71
2023/05/10 09:00:16;;;;;;;;;;;21.40;61.10;;;;;;5052951;28;19927;-74
2023/05/10 09:02:42;;;;;;;;;;;21.40;61.20;;;;;;5043495;28;19924;-71
2023/05/10 09:05:09;;;;;;;;;;;21.40;61.40;;;;;;5053844;28;19924;-72
2023/05/10 09:07:35;;;;;;;;;;;21.30;61.30;;;;;;5063071;28;19924;-73
2023/05/10 09:10:00;;;;;;;;;;;21.30;61.40;;;;;;5056783;28;19958;-71
2023/05/10 09:12:26;;;;;;;;;;;21.30;61.40;;;;;;5055439;28;19924;-71
2023/05/10 09:14:54;;;;;;;;;;;21.30;61.40;;;;;;5066858;28;19981;-71
2023/05/10 09:17:20;;;;;;;;;;;21.30;61.50;;;;;;5061143;28;19932;-73
2023/05/10 09:19:45;;;;;;;;;;;21.30;61.60;;;;;;5052391;28;19933;-71
2023/05/10 09:22:10;;;;;;;;;;;21.30;61.60;;;;;;5070742;28;19931;-75
2023/05/10 09:24:42;;;;;;;;;;;21.30;61.60;;;;;;5071266;28;20399;-75
2023/05/10 09:27:07;;;;;;;;;;;21.30;61.60;;;;;;5071529;28;19924;-72
2023/05/10 09:29:41;;;;;;;;;;;21.30;61.60;;;;;;5056957;28;19931;-70
2023/05/10 09:32:06;;;;;;;;;;;21.30;61.60;;;;;;5071703;28;20534;-70
2023/05/10 09:34:33;;;;;;;;;;;21.30;61.60;;;;;;5050798;28;19931;-70
2023/05/10 09:37:01;;;;;;;;;;;21.30;61.70;;;;;;5051601;28;19921;-71
2023/05/10 09:39:30;;;;;;;;;;;21.30;61.70;;;;;;5055246;28;19929;-72
2023/05/10 09:41:56;;;;;;;;;;;21.30;61.70;;;;;;5051587;28;20034;-69
2023/05/10 09:44:21;;;;;;;;;;;21.40;61.70;;;;;;5050547;28;19951;-70
2023/05/10 09:46:48;;;;;;;;;;;21.30;61.70;;;;;;5051736;28;20047;-70
2023/05/10 09:49:14;;;;;;;;;;;21.40;61.70;;;;;;5054238;28;19920;-68
2023/05/10 09:51:39;;;;;;;;;;;21.40;61.80;;;;;;5069182;28;19921;-69
2023/05/10 09:54:10;;;;;;;;;;;21.40;61.90;;;;;;5050794;28;19923;-70
2023/05/10 09:56:35;;;;;;;;;;;21.40;61.90;;;;;;5055344;28;19973;-70
2023/05/10 09:59:02;;;;;;;;;;;21.40;61.80;;;;;;5051193;28;19928;-72
2023/05/10 10:01:28;;;;;;;;;;;21.40;61.80;;;;;;5059820;28;19924;-71
2023/05/10 10:03:54;;;;;;;;;;;21.40;61.90;;;;;;5068698;28;20034;-73
2023/05/10 10:06:19;;;;;;;;;;;21.40;61.90;;;;;;5068054;28;19924;-71
2023/05/10 10:08:45;;;;;;;;;;;21.40;62.00;;;;;;5067729;28;20511;-75
2023/05/10 10:11:11;;;;;;;;;;;21.40;62.00;;;;;;5067558;28;19924;-71
2023/05/10 10:13:37;;;;;;;;;;;21.40;62.00;;;;;;5069909;28;19924;-69
2023/05/10 10:16:02;;;;;;;;;;;21.40;62.20;;;;;;5050374;28;20011;-70
2023/05/10 10:18:28;;;;;;;;;;;21.40;62.30;;;;;;5052940;28;20535;-68
2023/05/10 10:20:55;;;;;;;;;;;21.40;62.30;;;;;;5069041;28;19935;-70
2023/05/10 10:23:21;;;;;;;;;;;21.50;62.40;;;;;;5047184;28;19928;-72
2023/05/10 10:25:48;;;;;;;;;;;21.40;62.30;;;;;;5050085;28;19921;-71
2023/05/10 10:28:25;;;;;;;;;;;21.50;62.50;;;;;;5064105;28;19920;-69
2023/05/10 10:30:52;;;;;;;;;;;21.40;62.40;;;;;;5064180;28;19928;-71
2023/05/10 10:36:15;;;;;;;;;;;21.40;62.30;;;;;;5081812;27;19938;-73
2023/05/10 10:41:29;;;;;;;;;;;21.40;62.20;;;;;;5051310;28;19923;-67
2023/05/10 10:44:15;;;;;;;;;;;21.30;62.10;;;;;;5048696;28;19921;-73
2023/05/10 10:47:00;;;;;;;;;;;21.30;62.20;;;;;;5046702;28;20366;-70
2023/05/10 10:49:26;;;;;;;;;;;21.30;62.20;;;;;;5042289;28;19929;-71
2023/05/10 10:52:12;;;;;;;;;;;21.20;62.10;;;;;;5049752;28;19920;-70
2023/05/10 10:54:38;;;;;;;;;;;21.20;62.20;;;;;;5057665;28;19952;-70
2023/05/10 10:57:12;;;;;;;;;;;21.20;62.30;;;;;;5045486;28;20321;-69
2023/05/10 10:59:42;;;;;;;;;;;21.20;62.00;;;;;;5038426;28;19925;-70
2023/05/10 11:02:08;;;;;;;;;;;21.20;62.00;;;;;;5039524;28;19929;-70
2023/05/10 11:04:48;;;;;;;;;;;21.20;62.10;;;;;;5041485;28;19927;-71
2023/05/10 11:07:17;;;;;;;;;;;21.20;62.00;;;;;;5046355;28;20389;-65
2023/05/10 11:09:43;;;;;;;;;;;21.20;62.00;;;;;;5049518;28;19966;-71
2023/05/10 11:12:08;;;;;;;;;;;21.20;62.00;;;;;;5050794;28;19924;-71
2023/05/10 11:14:34;;;;;;;;;;;21.20;62.10;;;;;;5050075;28;20370;-72
2023/05/10 11:17:00;;;;;;;;;;;21.20;62.00;;;;;;5051076;28;20278;-71
2023/05/10 11:19:27;;;;;;;;;;;21.20;62.00;;;;;;5047891;28;19975;-72
2023/05/10 11:22:13;;;;;;;;;;;21.20;62.00;;;;;;5060930;28;19964;-66
2023/05/10 11:24:39;;;;;;;;;;;21.20;62.00;;;;;;5048662;28;19921;-67
2023/05/10 11:27:05;;;;;;;;;;;21.20;62.10;;;;;;5041270;28;20011;-69
2023/05/10 11:29:30;;;;;;;;;;;21.30;62.20;;;;;;5039331;28;20263;-68
2023/05/10 11:31:57;;;;;;;;;;;21.20;61.80;;;;;;5050248;28;19921;-68
2023/05/10 11:34:23;;;;;;;;;;;21.20;61.40;;;;;;5060373;28;19921;-68
2023/05/10 11:36:53;;;;;;;;;;;21.10;61.50;;;;;;5060328;28;19975;-68
2023/05/10 11:39:19;;;;;;;;;;;21.10;61.70;;;;;;5046760;28;19925;-65
2023/05/10 11:41:47;;;;;;;;;;;21.10;61.60;;;;;;5076656;28;20327;-68
2023/05/10 11:44:12;;;;;;;;;;;21.10;61.50;;;;;;5050280;28;19943;-68
2023/05/10 11:46:38;;;;;;;;;;;21.10;61.50;;;;;;5050980;28;20327;-68
2023/05/10 11:49:06;;;;;;;;;;;21.10;61.30;;;;;;5046165;28;19921;-68
2023/05/10 11:51:35;;;;;;;;;;;21.10;61.10;;;;;;5046515;28;19924;-70
2023/05/10 11:54:04;;;;;;;;;;;21.10;61.30;;;;;;5038728;28;20432;-72
2023/05/10 11:56:32;;;;;;;;;;;21.10;61.40;;;;;;5025407;28;19929;-70
2023/05/10 11:58:58;;;;;;;;;;;21.10;61.30;;;;;;5024063;28;20023;-71
2023/05/10 12:01:28;;;;;;;;;;;21.10;61.30;;;;;;5054546;28;20069;-71
2023/05/10 12:03:54;;;;;;;;;;;21.10;61.30;;;;;;5048284;28;19928;-71
2023/05/10 12:06:20;;;;;;;;;;;21.20;61.30;;;;;;5038487;28;20377;-70
2023/05/10 12:08:46;;;;;;;;;;;21.20;61.30;;;;;;5061397;28;19967;-72
2023/05/10 12:11:12;;;;;;;;;;;21.30;61.40;;;;;;5036518;28;19925;-74
2023/05/10 12:13:38;;;;;;;;;;;21.30;61.30;;;;;;5054005;28;19927;-73
2023/05/10 12:16:20;;;;;;;;;;;21.30;61.40;;;;;;5050165;28;19952;-73
2023/05/10 12:18:50;;;;;;;;;;;21.30;61.40;;;;;;5043452;28;19920;-73
2023/05/10 12:21:16;;;;;;;;;;;21.40;61.50;;;;;;5051043;28;19927;-73
2023/05/10 12:23:42;;;;;;;;;;;21.40;61.60;;;;;;5055303;28;19929;-72
2023/05/10 12:26:09;;;;;;;;;;;21.40;61.60;;;;;;5043522;28;19924;-71
2023/05/10 12:28:35;;;;;;;;;;;21.40;61.70;;;;;;5040859;28;20343;-70
2023/05/10 12:31:01;;;;;;;;;;;21.40;61.70;;;;;;5038002;28;20061;-70
2023/05/10 12:33:26;;;;;;;;;;;21.30;62.50;;;;;;5054617;28;19928;-70
2023/05/10 12:35:54;;;;;;;;;;;21.30;61.60;;;;;;5054282;28;19955;-69
2023/05/10 12:38:37;;;;;;;;;;;21.20;61.10;;;;;;5035324;28;20472;-68
2023/05/10 12:41:04;;;;;;;;;;;21.20;61.00;;;;;;5030083;28;19924;-69
2023/05/10 12:43:30;;;;;;;;;;;21.20;61.10;;;;;;5042306;28;19929;-68
2023/05/10 12:45:56;;;;;;;;;;;21.10;61.00;;;;;;5054733;28;19920;-70
2023/05/10 12:48:21;;;;;;;;;;;21.10;61.50;;;;;;5042434;28;20435;-70
2023/05/10 12:50:47;;;;;;;;;;;21.00;61.60;;;;;;5042610;28;20446;-70
2023/05/10 12:53:15;;;;;;;;;;;21.00;61.60;;;;;;5040841;28;20264;-69
2023/05/10 12:55:41;;;;;;;;;;;21.00;61.70;;;;;;5033970;28;19925;-69
2023/05/10 12:58:06;;;;;;;;;;;20.90;61.80;;;;;;5068179;28;19943;-70
2023/05/10 13:00:32;;;;;;;;;;;20.90;61.80;;;;;;5047539;28;19924;-70
2023/05/10 13:02:57;;;;;;;;;;;20.90;61.80;;;;;;5047492;28;20235;-69
2023/05/10 13:05:23;;;;;;;;;;;20.90;62.00;;;;;;5036901;28;19920;-72
2023/05/10 13:07:48;;;;;;;;;;;20.80;62.00;;;;;;5051715;28;19967;-69
2023/05/10 13:10:13;;;;;;;;;;;20.80;62.00;;;;;;5049800;28;19925;-69
2023/05/10 13:12:39;;;;;;;;;;;20.80;62.10;;;;;;5047522;28;20022;-71
2023/05/10 13:15:05;;;;;;;;;;;20.80;62.20;;;;;;5037345;28;19927;-70
2023/05/10 13:17:30;;;;;;;;;;;20.70;62.20;;;;;;5040249;28;20611;-68
2023/05/10 13:19:56;;;;;;;;;;;20.70;62.30;;;;;;5036139;28;19932;-71
2023/05/10 13:22:21;;;;;;;;;;;20.70;62.30;;;;;;5036512;28;19978;-69
2023/05/10 13:24:47;;;;;;;;;;;20.70;62.40;;;;;;5065559;28;20015;-68
2023/05/10 13:27:12;;;;;;;;;;;20.70;62.30;;;;;;5031091;28;19920;-68
2023/05/10 13:29:38;;;;;;;;;;;20.70;62.50;;;;;;5050104;28;19967;-70
2023/05/10 13:32:04;;;;;;;;;;;20.70;62.40;;;;;;5041594;28;20337;-68
2023/05/10 13:34:29;;;;;;;;;;;20.70;62.40;;;;;;5049364;28;19924;-68
2023/05/10 13:36:56;;;;;;;;;;;20.70;62.70;;;;;;5055731;28;19921;-68
2023/05/10 13:39:21;;;;;;;;;;;20.70;62.60;;;;;;5046440;28;19928;-69
2023/05/10 13:41:47;;;;;;;;;;;20.70;62.60;;;;;;5044758;28;19933;-71
2023/05/10 13:44:14;;;;;;;;;;;20.60;62.70;;;;;;5045532;28;19950;-72
2023/05/10 13:46:40;;;;;;;;;;;20.60;62.70;;;;;;5040681;28;19952;-69
2023/05/10 13:49:05;;;;;;;;;;;20.60;62.70;;;;;;5051265;28;19921;-68
2023/05/10 13:51:31;;;;;;;;;;;20.60;62.60;;;;;;5029233;28;20553;-71
2023/05/10 13:53:57;;;;;;;;;;;20.70;62.70;;;;;;5030712;28;19921;-70
2023/05/10 13:56:23;;;;;;;;;;;20.60;62.70;;;;;;5046354;28;19921;-68
2023/05/10 13:58:48;;;;;;;;;;;20.60;62.70;;;;;;5025779;28;20379;-69
2023/05/10 14:01:14;;;;;;;;;;;20.60;62.80;;;;;;5036378;28;19943;-69
2023/05/10 14:03:39;;;;;;;;;;;20.60;62.70;;;;;;5035689;28;19928;-68
2023/05/10 14:06:07;;;;;;;;;;;20.60;62.70;;;;;;5028690;28;19921;-68
2023/05/10 14:08:32;;;;;;;;;;;20.60;62.60;;;;;;5034264;28;20291;-68
2023/05/10 14:10:58;;;;;;;;;;;20.60;62.60;;;;;;5028925;28;19920;-69
2023/05/10 14:13:24;;;;;;;;;;;20.60;62.60;;;;;;5028666;28;19998;-66
2023/05/10 14:15:50;;;;;;;;;;;20.60;62.60;;;;;;5044127;28;19925;-69
2023/05/10 14:18:15;;;;;;;;;;;20.60;62.60;;;;;;5064585;28;20295;-70
2023/05/10 14:20:41;;;;;;;;;;;20.60;62.60;;;;;;5051594;28;19986;-71
2023/05/10 14:23:07;;;;;;;;;;;20.60;63.30;;;;;;5061724;28;19978;-70
2023/05/10 14:25:33;;;;;;;;;;;20.60;62.60;;;;;;5047268;28;19925;-70
2023/05/10 14:27:58;;;;;;;;;;;20.60;62.60;;;;;;5051890;28;19971;-71